Latest Weather Observations for Wynyard

IDT60801

Issued at 3:02 am EDT Monday 20 November 2017 (issued every 30 minutes, with the page automatically refreshed every 10 minutes)

About weather observations | Map of weather stations | Latest weather observations for TAS | Other Formats
Station Details ID: 091107 Name: WYNYARD AIRPORT Lat: -41.00 Lon: 145.73 Height: 12.0 m
Data from the previous 72 hours. | See also: Recent months at Wynyard
Date/Time
EDT
Temp
°C
App
Temp
°C
Dew
Point
°C
Rel
Hum
%
Delta-T
°C
Wind Press
QNH
hPa
Press
MSL
hPa
Rain since
9am
mm
Dir  Spd
km/h
Gust
km/h
Spd
kts
Gust
kts
20/03:00am 16.5 13.5 14.7 89 1.0 ESE 24 33 13 18 1024.6 1024.6 0.0
20/02:30am 16.4 13.8 14.8 90 0.9 ESE 22 28 12 15 1024.8 1024.8 0.0
20/02:00am 16.3 14.1 14.8 91 0.9 ESE 20 30 11 16 1024.9 1024.9 0.0
20/01:36am 16.4 14.2 14.9 91 0.9 E 20 28 11 15 1024.7 1024.7 0.0
20/01:30am 16.4 14.2 14.8 90 0.9 E 20 28 11 15 1024.7 1024.7 0.0
20/01:00am 16.5 14.5 14.9 90 0.9 E 19 28 10 15 1024.9 1024.9 0.0
20/12:30am 16.5 14.7 14.5 88 1.1 ESE 17 26 9 14 1025.3 1025.3 0.0
20/12:00am 16.6 14.8 14.4 87 1.3 ESE 17 22 9 12 1025.3 1025.3 0.0
 
Date/Time
EDT
Temp
°C
App
Temp
°C
Dew
Point
°C
Rel
Hum
%
Delta-T
°C
Wind Press
QNH
hPa
Press
MSL
hPa
Rain since
9am
mm
Dir  Spd
km/h
Gust
km/h
Spd
kts
Gust
kts
19/11:30pm 16.6 14.7 14.1 85 1.4 ESE 17 22 9 12 1025.2 1025.2 0.0
19/11:00pm 16.6 15.1 14.1 85 1.4 ESE 15 20 8 11 1025.1 1025.1 0.0
19/10:30pm 16.9 15.1 14.4 85 1.4 ESE 17 20 9 11 1025.2 1025.2 0.0
19/10:00pm 16.5 15.4 14.3 87 1.2 ESE 13 17 7 9 1025.0 1025.0 0.0
19/09:30pm 16.7 15.5 14.0 84 1.5 SE 13 17 7 9 1024.8 1024.8 0.0
19/09:00pm 17.0 15.6 14.5 85 1.4 ESE 15 19 8 10 1024.4 1024.4 0.0
19/08:30pm 17.1 15.7 14.6 85 1.4 ESE 15 20 8 11 1024.1 1024.1 0.0
19/08:00pm 17.6 16.2 14.5 82 1.8 ESE 15 20 8 11 1024.1 1024.1 0.0
19/07:30pm 18.3 16.6 14.6 79 2.1 ESE 17 20 9 11 1024.1 1024.1 0.0
19/07:00pm 19.1 18.0 15.2 78 2.3 ESE 15 22 8 12 1024.1 1024.1 0.0
19/06:30pm 19.1 18.3 15.0 77 2.4 E 13 20 7 11 1023.9 1023.9 0.0
19/06:00pm 19.6 18.8 15.0 75 2.7 E 13 22 7 12 1023.7 1023.7 0.0
19/05:30pm 20.0 18.5 15.4 75 2.7 E 17 26 9 14 1023.6 1023.6 0.0
19/05:00pm 20.4 18.9 15.2 72 3.1 E 17 22 9 12 1023.8 1023.8 0.0
19/04:30pm 20.9 19.6 15.7 72 3.1 E 17 26 9 14 1023.9 1023.9 0.0
19/04:00pm 20.1 18.0 14.7 71 3.1 E 19 26 10 14 1023.9 1023.9 0.0
19/03:30pm 21.0 19.3 15.8 72 3.1 E 19 26 10 14 1024.1 1024.1 0.0
19/03:00pm 21.3 19.8 15.2 68 3.6 E 17 24 9 13 1024.5 1024.5 0.0
19/02:30pm 21.7 20.3 16.6 73 3.1 E 19 26 10 14 1024.6 1024.6 0.0
19/02:00pm 21.0 18.6 15.5 71 3.3 E 22 30 12 16 1024.7 1024.7 0.0
19/01:30pm 21.1 19.3 15.9 72 3.1 E 20 30 11 16 1024.9 1024.9 0.0
19/01:00pm 21.0 18.6 16.4 75 2.8 E 24 33 13 18 1025.2 1025.2 0.0
19/12:30pm 20.4 17.5 15.2 72 3.1 E 24 33 13 18 1025.2 1025.2 0.0
19/12:00pm 20.5 17.3 15.3 72 3.1 ESE 26 35 14 19 1025.2 1025.2 0.0
19/11:30am 20.5 17.5 14.8 70 3.3 E 24 35 13 19 1025.2 1025.2 0.0
19/11:00am 19.5 16.7 14.3 72 3.0 E 22 32 12 17 1025.2 1025.2 0.0
19/10:30am 19.5 16.5 14.7 74 2.8 ESE 24 33 13 18 1025.0 1025.0 0.0
19/10:00am 19.3 15.8 14.6 74 2.7 ESE 26 35 14 19 1024.5 1024.5 0.0
19/09:30am 18.3 15.5 14.2 77 2.4 E 22 33 12 18 1024.4 1024.4 0.0
19/09:00am 18.4 15.1 14.1 76 2.5 ESE 24 33 13 18 1024.1 1024.1 0.0
19/08:30am 18.1 14.8 14.0 77 2.3 ESE 24 33 13 18 1024.0 1024.0 0.0
19/08:00am 17.8 14.0 13.7 77 2.3 ESE 26 35 14 19 1023.5 1023.5 0.0
19/07:30am 17.7 15.1 13.8 78 2.2 ESE 20 30 11 16 1023.6 1023.6 0.0
19/07:00am 17.4 14.8 13.7 79 2.1 ESE 20 28 11 15 1023.5 1023.5 0.0
19/06:30am 17.2 14.6 13.7 80 2.0 ESE 20 26 11 14 1023.4 1023.4 0.0
19/06:00am 17.0 14.4 13.7 81 1.9 ESE 20 30 11 16 1023.0 1023.0 0.0
19/05:30am 17.1 14.1 13.8 81 1.9 ESE 22 32 12 17 1022.8 1022.8 0.0
19/05:00am 17.0 14.4 13.9 82 1.8 E 20 32 11 17 1022.3 1022.3 0.0
19/04:30am 16.9 13.5 13.8 82 1.8 ESE 24 33 13 18 1022.4 1022.4 0.0
19/04:00am 16.8 13.9 13.9 83 1.6 ESE 22 32 12 17 1022.5 1022.5 0.0
19/03:30am 16.9 13.2 14.0 83 1.6 ESE 26 35 14 19 1022.6 1022.6 0.0
19/03:00am 16.9 12.9 14.0 83 1.6 ESE 28 37 15 20 1022.4 1022.4 0.0
19/02:30am 16.8 13.2 14.1 84 1.5 ESE 26 35 14 19 1022.6 1022.6 0.0
19/02:00am 16.8 13.2 14.1 84 1.5 ESE 26 37 14 20 1022.7 1022.7 0.0
19/01:30am 16.8 13.5 13.9 83 1.6 ESE 24 37 13 20 1022.7 1022.7 0.0
19/01:00am 16.6 12.5 13.7 83 1.6 ESE 28 35 15 19 1022.9 1022.9 0.0
19/12:30am 16.5 13.1 13.8 84 1.5 ESE 24 33 13 18 1023.0 1023.0 0.0
19/12:00am 16.2 13.7 14.2 88 1.1 ESE 20 28 11 15 1022.9 1022.9 0.0
 
Date/Time
EDT
Temp
°C
App
Temp
°C
Dew
Point
°C
Rel
Hum
%
Delta-T
°C
Wind Press
QNH
hPa
Press
MSL
hPa
Rain since
9am
mm
Dir  Spd
km/h
Gust
km/h
Spd
kts
Gust
kts
18/11:30pm 16.1 13.7 14.3 89 1.0 ESE 20 30 11 16 1023.0 1023.0 0.0
18/11:00pm 16.3 13.9 14.3 88 1.1 ESE 20 28 11 15 1022.9 1022.9 0.0
18/10:30pm 16.4 13.9 14.2 87 1.3 ESE 20 30 11 16 1022.9 1022.9 0.0
18/10:00pm 16.5 14.0 14.2 86 1.3 ESE 20 32 11 17 1022.9 1022.9 0.0
18/09:30pm 16.4 14.1 14.2 87 1.3 ESE 19 22 10 12 1022.7 1022.7 0.0
18/09:00pm 16.4 14.1 14.2 87 1.2 ESE 19 24 10 13 1022.6 1022.6 0.0
18/08:30pm 16.5 14.6 14.3 87 1.3 E 17 28 9 15 1022.4 1022.4 0.0
18/08:00pm 17.1 15.4 14.6 85 1.4 E 17 24 9 13 1022.3 1022.3 0.0
18/07:30pm 17.5 15.4 14.8 84 1.6 E 19 30 10 16 1021.7 1021.7 0.0
18/07:00pm 17.9 15.7 14.8 82 1.8 ESE 20 30 11 16 1021.6 1021.6 0.0
18/06:30pm 17.9 15.3 15.0 83 1.7 ESE 22 30 12 16 1021.2 1021.2 0.0
18/06:00pm 18.4 15.9 15.1 81 1.9 ESE 22 30 12 16 1020.9 1020.9 0.0
18/05:30pm 18.7 16.2 15.2 80 2.1 ESE 22 32 12 17 1020.9 1020.9 0.0
18/05:00pm 18.0 16.2 15.6 86 1.4 E 19 28 10 15 1021.0 1021.0 0.0
18/04:30pm 18.1 16.0 15.2 83 1.7 E 20 32 11 17 1021.1 1021.1 0.0
18/04:00pm 18.0 15.5 15.1 83 1.7 ESE 22 32 12 17 1021.4 1021.4 0.0
18/03:30pm 17.7 14.8 15.1 85 1.5 ESE 24 33 13 18 1021.4 1021.4 0.0
18/03:00pm 18.1 15.6 15.2 83 1.7 E 22 35 12 19 1021.5 1021.5 0.0
18/02:30pm 18.1 15.2 15.0 82 1.8 E 24 33 13 18 1021.4 1021.4 0.0
18/02:00pm 18.4 15.5 15.1 81 1.9 E 24 35 13 19 1021.5 1021.5 0.0
18/01:30pm 18.4 15.6 15.3 82 1.8 E 24 39 13 21 1021.4 1021.4 0.0
18/01:00pm 18.2 14.5 14.9 81 1.9 E 28 41 15 22 1021.4 1021.4 0.0
18/12:30pm 18.2 15.2 14.9 81 1.9 E 24 35 13 19 1021.6 1021.6 0.0
18/12:00pm 17.9 15.0 15.2 84 1.6 E 24 35 13 19 1021.5 1021.5 0.0
18/11:30am 17.8 14.9 15.2 85 1.5 E 24 35 13 19 1021.6 1021.6 0.0
18/11:03am 17.7 14.8 15.0 84 1.6 E 24 39 13 21 1021.5 1021.5 0.0
18/11:00am 17.9 15.0 15.2 84 1.6 E 24 39 13 21 1021.5 1021.5 0.0
18/10:30am 17.7 14.4 15.0 84 1.6 E 26 41 14 22 1021.4 1021.4 0.0
18/10:00am 17.7 14.0 15.0 84 1.6 E 28 43 15 23 1021.3 1021.3 0.0
18/09:30am 17.3 13.6 14.9 86 1.4 E 28 44 15 24 1021.5 1021.5 0.0
18/09:00am 17.1 13.4 14.9 87 1.3 E 28 39 15 21 1021.5 1021.5 0.2
18/08:30am 17.0 13.4 15.2 89 1.0 ESE 28 43 15 23 1021.3 1021.3 0.2
18/08:21am 17.0 13.0 15.2 89 1.0 ESE 30 48 16 26 1021.2 1021.2 0.2
18/08:00am 17.1 13.1 15.1 88 1.2 ESE 30 44 16 24 1020.8 1020.8 0.2
18/07:30am 16.9 13.2 15.1 89 1.0 ESE 28 43 15 23 1020.7 1020.7 0.2
18/07:00am 16.8 13.1 15.0 89 1.0 E 28 46 15 25 1020.1 1020.1 0.2
18/06:50am 16.9 13.2 14.9 88 1.2 E 28 46 15 25 1020.0 1020.0 0.2
18/06:30am 16.9 12.3 15.1 89 1.0 E 33 48 18 26 1020.1 1020.1 0.2
18/06:15am 17.0 13.3 15.0 88 1.2 E 28 54 15 29 1019.9 1019.9 0.2
18/06:06am 17.0 13.7 15.0 88 1.2 E 26 41 14 22 1020.0 1020.0 0.2
18/06:00am 17.1 13.4 14.9 87 1.3 E 28 43 15 23 1019.9 1019.9 0.2
18/05:53am 17.1 13.4 14.9 87 1.3 E 28 44 15 24 1019.8 1019.8 0.2
18/05:41am 17.2 13.5 15.0 87 1.3 E 28 44 15 24 1019.6 1019.6 0.2
18/05:30am 17.3 12.8 14.9 86 1.4 ESE 32 44 17 24 1019.5 1019.5 0.2
18/05:00am 17.3 12.8 14.9 86 1.4 ESE 32 46 17 25 1019.1 1019.1 0.2
18/04:41am 17.3 13.2 14.9 86 1.4 ESE 30 43 16 23 1019.1 1019.1 0.2
18/04:30am 17.4 13.3 15.0 86 1.4 ESE 30 46 16 25 1019.1 1019.1 0.2
18/04:00am 17.4 14.4 14.9 85 1.4 E 24 39 13 21 1019.1 1019.1 0.2
18/03:37am 17.4 13.7 14.9 85 1.4 E 28 46 15 25 1019.0 1019.0 0.2
18/03:30am 17.3 14.3 14.9 86 1.4 E 24 41 13 22 1019.0 1019.0 0.2
18/03:12am 17.5 13.0 15.0 85 1.5 ESE 32 52 17 28 1018.8 1018.8 0.2
18/03:11am 17.5 13.0 14.8 84 1.6 ESE 32 52 17 28 1018.8 1018.8 0.2
18/03:00am 17.5 13.4 15.0 85 1.4 E 30 46 16 25 1018.9 1018.9 0.2
18/02:58am 17.5 13.8 15.0 85 1.5 E 28 43 15 23 1019.0 1019.0 0.2
18/02:52am 17.4 13.7 14.9 85 1.4 E 28 46 15 25 1018.9 1018.9 0.2
18/02:30am 17.5 13.0 14.8 84 1.6 ESE 32 44 17 24 1018.9 1018.9 0.2
18/02:16am 17.4 13.7 14.9 85 1.4 E 28 46 15 25 1019.1 1019.1 0.2
18/02:08am 17.4 12.9 15.0 86 1.4 ESE 32 46 17 25 1019.0 1019.0 0.2
18/02:00am 17.4 13.3 15.0 86 1.4 ESE 30 43 16 23 1019.1 1019.1 0.2
18/01:40am 17.6 12.9 14.9 84 1.6 ESE 33 46 18 25 1019.1 1019.1 0.2
18/01:30am 17.6 12.8 14.7 83 1.7 ESE 33 50 18 27 1019.2 1019.2 0.2
18/01:25am 17.7 13.2 14.8 83 1.7 ESE 32 50 17 27 1019.1 1019.1 0.2
18/01:17am 17.7 13.6 14.8 83 1.7 ESE 30 43 16 23 1019.2 1019.2 0.2
18/01:00am 17.7 13.2 15.0 84 1.6 ESE 32 46 17 25 1019.1 1019.1 0.2
18/12:30am 17.7 13.2 15.0 84 1.6 ESE 32 50 17 27 1019.2 1019.2 0.2
18/12:00am 17.5 12.9 15.1 86 1.4 ESE 33 46 18 25 1019.4 1019.4 0.2
 
Date/Time
EDT
Temp
°C
App
Temp
°C
Dew
Point
°C
Rel
Hum
%
Delta-T
°C
Wind Press
QNH
hPa
Press
MSL
hPa
Rain since
9am
mm
Dir  Spd
km/h
Gust
km/h
Spd
kts
Gust
kts
17/11:30pm 17.4 12.8 15.0 86 1.4 ESE 33 52 18 28 1019.1 1019.1 0.2
17/11:03pm 17.6 13.6 15.2 86 1.4 E 30 48 16 26 1018.9 1018.9 0.2
17/11:00pm 17.6 13.1 15.0 85 1.5 E 32 48 17 26 1018.9 1018.9 0.2
17/10:30pm 17.9 13.4 14.8 82 1.8 ESE 32 43 17 23 1019.1 1019.1 0.2
17/10:00pm 17.0 13.4 14.3 84 1.5 ESE 26 37 14 20 1019.1 1019.1 0.2
17/09:32pm 16.5 12.3 14.7 89 1.0 ESE 30 43 16 23 1018.9 1018.9 0.2
17/09:30pm 16.5 12.2 14.5 88 1.1 ESE 30 43 16 23 1018.9 1018.9 0.2
17/09:19pm 16.8 12.3 14.8 88 1.2 ESE 32 48 17 26 1018.7 1018.7 0.2
17/09:14pm 17.0 13.2 14.6 86 1.4 ESE 28 48 15 26 1018.7 1018.7 0.0
17/09:00pm 17.2 13.7 14.5 84 1.5 ESE 26 37 14 20 1018.8 1018.8 0.0
17/08:30pm 17.2 13.3 14.5 84 1.6 ESE 28 37 15 20 1018.8 1018.8 0.0
17/08:00pm 17.2 14.3 15.0 87 1.3 ESE 24 33 13 18 1018.7 1018.7 0.0
17/07:30pm 17.9 15.8 15.2 84 1.6 ESE 20 30 11 16 1018.5 1018.5 0.0
17/07:00pm 18.3 16.3 15.6 84 1.6 ESE 20 28 11 15 1018.4 1018.4 0.0
17/06:30pm 18.3 15.5 15.4 83 1.7 ESE 24 33 13 18 1018.0 1017.9 0.0
17/06:00pm 18.8 16.4 15.3 80 2.1 E 22 35 12 19 1018.2 1018.1 0.0
17/05:30pm 19.1 17.0 15.2 78 2.3 E 20 32 11 17 1018.2 1018.1 0.0
17/05:00pm 19.6 17.2 15.3 76 2.5 E 22 33 12 18 1018.1 1018.0 0.0
17/04:30pm 18.9 16.4 15.2 79 2.2 E 22 33 12 18 1017.9 1017.8 0.0
17/04:00pm 19.9 17.3 16.0 78 2.3 E 24 35 13 19 1017.9 1017.8 0.0
17/03:30pm 18.8 15.9 15.1 79 2.2 ESE 24 33 13 18 1018.3 1018.2 0.0
17/03:00pm 19.5 17.0 15.2 76 2.5 E 22 32 12 17 1018.5 1018.5 0.0
17/02:30pm 19.2 15.7 15.5 79 2.2 ESE 28 37 15 20 1018.6 1018.6 0.0
17/02:00pm 19.3 16.4 15.2 77 2.4 E 24 35 13 19 1018.8 1018.8 0.0
17/01:30pm 19.4 16.7 15.5 78 2.3 E 24 39 13 21 1018.9 1018.9 0.0
17/01:00pm 19.0 15.7 14.9 77 2.4 E 26 41 14 22 1018.9 1018.9 0.0
17/12:30pm 19.5 15.8 15.0 75 2.6 E 28 39 15 21 1019.1 1019.1 0.0
17/12:00pm 20.3 16.2 15.9 76 2.6 E 32 46 17 25 1019.2 1019.2 0.0
17/11:31am 19.2 15.2 14.0 72 3.0 E 28 46 15 25 1019.4 1019.4 0.0
17/11:30am 19.1 15.0 13.9 72 3.0 E 28 41 15 22 1019.4 1019.4 0.0
17/11:00am 19.6 15.1 13.8 69 3.3 ESE 30 46 16 25 1019.3 1019.3 0.0
17/10:32am 19.4 14.6 14.0 71 3.1 ESE 32 50 17 27 1019.3 1019.3 0.0
17/10:30am 19.5 15.0 13.9 70 3.2 ESE 30 41 16 22 1019.3 1019.3 0.0
17/10:00am 19.1 14.1 13.9 72 3.0 ESE 33 46 18 25 1019.2 1019.2 0.0
17/09:49am 18.8 13.3 13.6 72 3.0 ESE 35 54 19 29 1019.1 1019.1 0.0
17/09:30am 18.7 12.9 13.8 73 2.8 ESE 37 48 20 26 1019.1 1019.1 0.0
17/09:00am 18.6 13.4 13.5 72 2.9 ESE 33 54 18 29 1019.2 1019.2 0.0
17/08:51am 18.7 13.5 13.3 71 3.1 ESE 33 54 18 29 1019.1 1019.1 0.0
17/08:30am 18.7 13.0 12.9 69 3.3 ESE 35 46 19 25 1018.8 1018.8 0.0
17/08:00am 19.2 13.9 13.2 68 3.4 ESE 33 46 18 25 1018.8 1018.8 0.0
17/07:30am 18.1 12.8 12.5 70 3.1 ESE 32 46 17 25 1018.6 1018.6 0.0
17/07:00am 17.9 13.0 12.6 71 2.9 ESE 30 43 16 23 1018.5 1018.5 0.0
17/06:30am 17.9 12.4 12.4 70 3.1 ESE 33 44 18 24 1018.1 1018.0 0.0
17/06:01am 17.7 13.1 12.2 70 3.0 ESE 28 46 15 25 1017.8 1017.7 0.0
17/06:00am 17.7 12.7 12.2 70 3.0 ESE 30 46 16 25 1017.8 1017.7 0.0
17/05:30am 17.5 12.7 11.8 69 3.1 ESE 28 39 15 21 1017.4 1017.3 0.0
17/05:00am 17.7 12.7 12.2 70 3.0 ESE 30 46 16 25 1017.4 1017.3 0.0
17/04:53am 17.7 13.0 11.9 69 3.2 ESE 28 46 15 25 1017.4 1017.3 0.0
17/04:30am 17.7 12.2 11.7 68 3.3 ESE 32 48 17 26 1017.5 1017.4 0.0
17/04:12am 17.8 12.3 11.8 68 3.3 ESE 32 50 17 27 1017.5 1017.4 0.0
17/04:00am 17.9 12.4 11.9 68 3.3 ESE 32 46 17 25 1017.5 1017.4 0.0
17/03:30am 18.0 12.5 11.8 67 3.4 ESE 32 48 17 26 1017.4 1017.3 0.0
17/03:24am 18.1 12.9 11.7 66 3.5 ESE 30 48 16 26 1017.4 1017.3 0.0

Other Formats:

Comma delimited format used in spreadsheet applications
http://www.bom.gov.au/fwo/IDT60801/IDT60801.95957.axf

JavaScript Object Notation format (JSON) in row-major order
http://www.bom.gov.au/fwo/IDT60801/IDT60801.95957.json